createdAt,value
2023-05-01T00:00:31.386Z,3.80
2023-05-01T00:01:37.226Z,3.60
2023-05-01T00:03:00.594Z,3.17
2023-05-01T00:04:24.060Z,3.73
2023-05-01T00:05:47.685Z,3.47
2023-05-01T00:07:11.841Z,4.13
2023-05-01T00:08:35.106Z,3.50
2023-05-01T00:09:58.214Z,3.78
2023-05-01T00:11:21.690Z,3.20
2023-05-01T00:12:45.481Z,3.30
2023-05-01T00:14:07.776Z,3.70
2023-05-01T00:15:31.095Z,3.17
2023-05-01T00:16:54.426Z,3.17
2023-05-01T00:18:17.026Z,3.53
2023-05-01T00:19:40.878Z,3.20
2023-05-01T00:21:03.320Z,3.20
2023-05-01T00:22:28.723Z,2.92
2023-05-01T00:23:51.959Z,3.43
2023-05-01T00:25:14.649Z,3.10
2023-05-01T00:26:37.853Z,3.30
2023-05-01T00:28:00.220Z,2.65
2023-05-01T00:29:23.506Z,3.58
2023-05-01T00:30:45.901Z,3.00
2023-05-01T00:32:10.468Z,3.73
2023-05-01T00:33:34.370Z,3.20
2023-05-01T00:34:57.880Z,3.10
2023-05-01T00:36:21.298Z,3.28
2023-05-01T00:37:46.480Z,3.40
2023-05-01T00:39:09.947Z,3.10
2023-05-01T00:40:32.352Z,2.85
2023-05-01T00:41:56.407Z,3.08
2023-05-01T00:43:18.933Z,3.43
2023-05-01T00:44:42.192Z,3.10
2023-05-01T00:46:04.703Z,3.17
2023-05-01T00:47:28.087Z,3.07
2023-05-01T00:48:51.137Z,3.10
2023-05-01T00:50:15.092Z,3.10
2023-05-01T00:51:37.366Z,3.28
2023-05-01T00:53:02.240Z,3.22
2023-05-01T00:54:27.737Z,3.25
2023-05-01T00:55:52.025Z,3.90
2023-05-01T00:57:15.380Z,3.10
2023-05-01T00:58:39.596Z,3.03
2023-05-01T01:00:04.082Z,2.70
2023-05-01T01:01:28.934Z,2.95
2023-05-01T01:02:52.203Z,3.03
2023-05-01T01:04:15.805Z,3.10
2023-05-01T01:05:44.281Z,3.53
2023-05-01T01:07:12.157Z,2.63
2023-05-01T01:08:41.973Z,3.03
2023-05-01T01:10:13.630Z,2.90
2023-05-01T01:11:43.459Z,2.80
2023-05-01T01:13:13.308Z,2.90
2023-05-01T01:14:43.813Z,3.10
2023-05-01T01:16:13.958Z,3.20
2023-05-01T01:17:42.742Z,2.77
2023-05-01T01:19:25.987Z,3.92
2023-05-01T01:20:56.799Z,3.10
2023-05-01T01:22:23.799Z,3.20
2023-05-01T01:24:21.014Z,3.17
2023-05-01T01:26:11.050Z,3.40
2023-05-01T01:27:57.787Z,3.10
2023-05-01T01:29:42.831Z,3.65
2023-05-01T01:31:18.924Z,3.43
2023-05-01T01:33:02.230Z,2.60
2023-05-01T01:34:33.442Z,3.50
2023-05-01T01:35:59.726Z,3.10
2023-05-01T01:37:30.281Z,2.70
2023-05-01T01:39:01.249Z,3.10
2023-05-01T01:40:31.497Z,3.58
2023-05-01T01:41:58.096Z,3.03
2023-05-01T01:43:23.071Z,2.92
2023-05-01T01:44:53.856Z,3.13
2023-05-01T01:46:18.435Z,3.00
2023-05-01T01:47:43.756Z,2.75
2023-05-01T01:49:09.744Z,3.13
2023-05-01T01:50:37.868Z,3.40
2023-05-01T01:52:04.429Z,3.20
2023-05-01T01:53:28.850Z,3.60
2023-05-01T01:54:54.744Z,3.13
2023-05-01T01:56:19.137Z,3.30
2023-05-01T01:57:46.053Z,3.00
2023-05-01T01:59:10.122Z,3.13
2023-05-01T02:00:34.577Z,2.85
2023-05-01T02:01:59.082Z,2.90
2023-05-01T02:03:25.086Z,2.72
2023-05-01T02:04:49.059Z,2.58
2023-05-01T02:05:55.947Z,3.08
2023-05-01T02:07:01.070Z,3.13
2023-05-01T02:08:06.446Z,3.00
2023-05-01T02:09:11.051Z,3.28
2023-05-01T02:10:16.277Z,3.13
2023-05-01T02:11:21.959Z,2.70
2023-05-01T02:12:27.388Z,3.20
2023-05-01T02:13:32.552Z,2.83
2023-05-01T02:14:35.978Z,3.05
2023-05-01T02:15:41.129Z,2.80
2023-05-01T02:16:46.927Z,2.93
2023-05-01T02:17:51.856Z,2.60
2023-05-01T02:18:56.813Z,3.33
2023-05-01T02:19:59.926Z,3.38
2023-05-01T02:21:05.817Z,2.85
2023-05-01T02:22:19.319Z,3.00
2023-05-01T02:23:23.312Z,2.90
2023-05-01T02:24:28.464Z,2.93
2023-05-01T02:25:35.953Z,2.95
2023-05-01T02:26:43.303Z,2.57
2023-05-01T02:27:50.057Z,3.00
2023-05-01T02:28:52.563Z,3.27
2023-05-01T02:29:56.654Z,2.78
2023-05-01T02:30:59.495Z,3.50
2023-05-01T02:32:03.143Z,2.90
2023-05-01T02:33:08.136Z,3.10
2023-05-01T02:34:12.349Z,3.00
2023-05-01T02:35:14.755Z,3.20
2023-05-01T02:36:19.682Z,3.00
2023-05-01T02:37:22.784Z,3.40
2023-05-01T02:38:26.106Z,3.27
2023-05-01T02:39:28.586Z,2.80
2023-05-01T02:40:33.084Z,3.70
2023-05-01T02:41:35.738Z,3.33
2023-05-01T02:42:41.447Z,2.80
2023-05-01T02:43:46.896Z,2.80
2023-05-01T02:44:55.352Z,3.05
2023-05-01T02:46:00.012Z,3.57
2023-05-01T02:47:04.680Z,2.97
2023-05-01T02:48:11.843Z,2.60
2023-05-01T02:49:17.081Z,2.40
2023-05-01T02:50:22.002Z,3.13
2023-05-01T02:51:27.881Z,3.22
2023-05-01T02:52:32.340Z,3.38
2023-05-01T02:53:35.223Z,3.55
2023-05-01T02:54:39.306Z,3.57
2023-05-01T02:55:43.115Z,3.00
2023-05-01T02:56:46.500Z,3.17
2023-05-01T02:57:51.899Z,2.70
2023-05-01T02:58:55.492Z,3.08
2023-05-01T02:59:58.938Z,3.00
2023-05-01T03:01:06.882Z,2.70
2023-05-01T03:02:15.584Z,2.95
2023-05-01T03:03:25.184Z,2.95
2023-05-01T03:04:36.428Z,2.72
2023-05-01T03:05:41.138Z,3.00
2023-05-01T03:06:46.418Z,3.13
2023-05-01T03:07:48.934Z,2.75
2023-05-01T03:08:52.813Z,3.10
2023-05-01T03:09:55.512Z,3.35
2023-05-01T03:10:59.053Z,3.55
2023-05-01T03:12:02.436Z,3.15
2023-05-01T03:13:05.898Z,3.03
2023-05-01T03:14:09.378Z,2.95
2023-05-01T03:15:13.400Z,3.33
2023-05-01T03:16:15.842Z,3.27
2023-05-01T03:17:19.208Z,3.00
2023-05-01T03:18:21.612Z,2.87
2023-05-01T03:19:25.557Z,3.00
2023-05-01T03:20:28.234Z,3.27
2023-05-01T03:21:32.100Z,3.40
2023-05-01T03:22:36.109Z,3.65
2023-05-01T03:23:39.511Z,3.05
2023-05-01T03:24:42.498Z,2.97
2023-05-01T03:25:45.989Z,3.40
2023-05-01T03:26:48.606Z,3.30
2023-05-01T03:27:54.239Z,3.07
2023-05-01T03:28:57.567Z,3.00
2023-05-01T03:30:00.963Z,2.90
2023-05-01T03:31:03.458Z,3.08
2023-05-01T03:32:07.352Z,2.80
2023-05-01T03:33:09.992Z,3.45
2023-05-01T03:34:13.399Z,3.17
2023-05-01T03:35:15.915Z,3.17
2023-05-01T03:36:19.886Z,2.95
2023-05-01T03:37:22.241Z,3.00
2023-05-01T03:38:27.302Z,3.40
2023-05-01T03:39:29.681Z,3.20
2023-05-01T03:40:33.387Z,2.92
2023-05-01T03:41:36.037Z,3.07
2023-05-01T03:42:39.675Z,3.35
2023-05-01T03:43:42.271Z,3.65
2023-05-01T03:44:45.626Z,3.00
2023-05-01T03:45:48.185Z,3.33
2023-05-01T03:46:52.063Z,3.42
2023-05-01T03:47:54.587Z,3.27
2023-05-01T03:48:57.963Z,3.10
2023-05-01T03:50:00.306Z,3.33
2023-05-01T03:51:04.002Z,3.45
2023-05-01T03:52:06.678Z,3.05
2023-05-01T03:53:10.090Z,3.00
2023-05-01T03:54:14.236Z,3.80
2023-05-01T03:55:17.797Z,2.58
2023-05-01T03:56:20.783Z,3.07
2023-05-01T03:57:24.399Z,3.20
2023-05-01T03:58:27.004Z,3.50
2023-05-01T03:59:30.698Z,3.13
2023-05-01T04:00:33.394Z,2.80
2023-05-01T04:01:36.995Z,3.20
2023-05-01T04:02:39.583Z,2.90
2023-05-01T04:03:43.049Z,3.55
2023-05-01T04:04:45.808Z,3.38
2023-05-01T04:05:49.613Z,2.73
2023-05-01T04:06:52.061Z,3.35
2023-05-01T04:07:55.546Z,2.97
2023-05-01T04:08:57.959Z,2.70
2023-05-01T04:10:02.739Z,3.22
2023-05-01T04:11:05.581Z,3.17
2023-05-01T04:12:08.926Z,3.30
2023-05-01T04:13:12.194Z,2.83
2023-05-01T04:14:15.482Z,3.00
2023-05-01T04:15:17.893Z,2.60
2023-05-01T04:16:21.687Z,4.32
2023-05-01T04:17:24.619Z,3.40
2023-05-01T04:18:28.197Z,3.00
2023-05-01T04:19:30.656Z,3.53
2023-05-01T04:20:34.209Z,3.50
2023-05-01T04:21:36.680Z,3.05
2023-05-01T04:22:39.987Z,2.90
2023-05-01T04:23:42.386Z,2.90
2023-05-01T04:24:45.836Z,3.25
2023-05-01T04:25:49.647Z,3.13
2023-05-01T04:26:52.991Z,3.78
2023-05-01T04:27:55.746Z,2.92
2023-05-01T04:29:00.643Z,2.97
2023-05-01T04:30:03.384Z,2.70
2023-05-01T04:31:06.964Z,3.88
2023-05-01T04:32:09.426Z,2.90
2023-05-01T04:33:13.255Z,2.70
2023-05-01T04:34:16.360Z,3.30
2023-05-01T04:35:19.878Z,2.53
2023-05-01T04:36:22.491Z,3.33
2023-05-01T04:37:25.840Z,3.20
2023-05-01T04:38:29.366Z,2.63
2023-05-01T04:39:33.007Z,2.63
2023-05-01T04:40:35.490Z,3.10
2023-05-01T04:41:46.575Z,2.63
2023-05-01T04:42:49.013Z,2.95
2023-05-01T04:43:52.536Z,3.22
2023-05-01T04:44:54.907Z,2.67
2023-05-01T04:45:58.214Z,3.60
2023-05-01T04:47:02.660Z,3.28
2023-05-01T04:48:06.973Z,3.50
2023-05-01T04:49:10.645Z,3.30
2023-05-01T04:50:13.052Z,2.70
2023-05-01T04:51:16.800Z,3.20
2023-05-01T04:52:19.602Z,3.20
2023-05-01T04:53:22.925Z,3.08
2023-05-01T04:54:25.773Z,2.80
2023-05-01T04:55:31.021Z,2.95
2023-05-01T04:56:34.152Z,2.70
2023-05-01T04:57:39.482Z,3.50
2023-05-01T04:58:42.916Z,2.75
2023-05-01T04:59:45.326Z,3.15
2023-05-01T05:00:48.608Z,3.30
2023-05-01T05:01:51.534Z,3.20
2023-05-01T05:02:54.964Z,2.97
2023-05-01T05:03:57.585Z,3.05
2023-05-01T05:05:01.031Z,2.53
2023-05-01T05:06:03.619Z,3.03
2023-05-01T05:07:07.034Z,3.20
2023-05-01T05:08:09.447Z,3.35
2023-05-01T05:09:13.061Z,3.20
2023-05-01T05:10:15.512Z,2.73
2023-05-01T05:11:19.457Z,3.05
2023-05-01T05:12:22.371Z,3.00
2023-05-01T05:13:27.619Z,3.40
2023-05-01T05:14:30.136Z,3.00
2023-05-01T05:15:33.447Z,3.03
2023-05-01T05:16:35.990Z,3.13
2023-05-01T05:17:39.375Z,3.20
2023-05-01T05:18:41.979Z,3.00
2023-05-01T05:19:45.281Z,2.80
2023-05-01T05:20:47.947Z,2.80
2023-05-01T05:21:51.835Z,2.60
2023-05-01T05:22:54.185Z,2.72
2023-05-01T05:23:57.542Z,3.50
2023-05-01T05:25:04.392Z,2.70
2023-05-01T05:26:08.279Z,3.47
2023-05-01T05:27:11.576Z,2.80
2023-05-01T05:28:14.253Z,3.50
2023-05-01T05:29:19.018Z,2.90
2023-05-01T05:30:21.830Z,2.55
2023-05-01T05:31:25.327Z,2.60
2023-05-01T05:32:28.755Z,2.67
2023-05-01T05:33:32.163Z,3.10
2023-05-01T05:34:34.605Z,2.92
2023-05-01T05:35:38.526Z,2.53
2023-05-01T05:36:40.921Z,3.40
2023-05-01T05:37:46.056Z,2.60
2023-05-01T05:38:48.730Z,3.07
2023-05-01T05:39:52.076Z,2.30
2023-05-01T05:40:55.183Z,2.50
2023-05-01T05:41:59.104Z,2.75
2023-05-01T05:43:01.784Z,2.87
2023-05-01T05:44:05.163Z,2.90
2023-05-01T05:45:10.566Z,2.83
2023-05-01T05:46:13.975Z,2.50
2023-05-01T05:47:16.419Z,2.78
2023-05-01T05:48:19.704Z,2.87
2023-05-01T05:49:22.235Z,2.60
2023-05-01T05:50:25.601Z,2.40
2023-05-01T05:51:29.280Z,2.40
2023-05-01T05:52:31.678Z,2.33
2023-05-01T05:53:35.009Z,2.90
2023-05-01T05:54:37.486Z,3.40
2023-05-01T05:55:41.251Z,2.57
2023-05-01T05:56:43.786Z,2.10
2023-05-01T05:57:47.609Z,2.60
2023-05-01T05:58:50.018Z,2.43
2023-05-01T05:59:54.716Z,3.03
2023-05-01T06:00:58.528Z,3.00
2023-05-01T06:02:02.172Z,2.60
2023-05-01T06:03:04.892Z,2.53
2023-05-01T06:04:08.608Z,2.80
2023-05-01T06:05:11.806Z,2.40
2023-05-01T06:06:15.474Z,2.87
2023-05-01T06:07:17.952Z,2.40
2023-05-01T06:08:22.744Z,2.60
2023-05-01T06:09:25.229Z,2.63
2023-05-01T06:10:28.520Z,2.60
2023-05-01T06:11:31.934Z,3.10
2023-05-01T06:12:37.570Z,3.27
2023-05-01T06:13:43.100Z,2.37
2023-05-01T06:14:45.495Z,2.47
2023-05-01T06:15:49.106Z,2.67
2023-05-01T06:16:52.965Z,2.40
2023-05-01T06:17:56.570Z,2.60
2023-05-01T06:18:59.117Z,2.90
2023-05-01T06:20:06.129Z,2.63
2023-05-01T06:21:08.506Z,2.60
2023-05-01T06:22:11.957Z,2.70
2023-05-01T06:23:15.421Z,2.80
2023-05-01T06:24:18.946Z,3.13
2023-05-01T06:25:21.356Z,2.80
2023-05-01T06:26:26.639Z,2.83
2023-05-01T06:27:29.069Z,2.73
2023-05-01T06:28:32.352Z,2.87
2023-05-01T06:29:34.785Z,2.73
2023-05-01T06:30:38.032Z,2.67
2023-05-01T06:31:41.106Z,2.77
2023-05-01T06:32:45.804Z,3.07
2023-05-01T06:33:48.428Z,2.70
2023-05-01T06:34:51.910Z,3.20
2023-05-01T06:35:54.857Z,3.10
2023-05-01T06:36:58.895Z,2.70
2023-05-01T06:38:01.378Z,2.50
2023-05-01T06:39:04.837Z,2.63
2023-05-01T06:40:08.453Z,2.80
2023-05-01T06:41:11.937Z,2.17
2023-05-01T06:42:16.345Z,2.80
2023-05-01T06:43:20.093Z,3.20
2023-05-01T06:44:22.564Z,2.33
2023-05-01T06:45:25.966Z,2.63
2023-05-01T06:46:28.418Z,2.57
2023-05-01T06:47:32.228Z,2.87
2023-05-01T06:48:36.111Z,2.70
2023-05-01T06:49:39.414Z,2.70
2023-05-01T06:50:42.784Z,2.40
2023-05-01T06:51:45.930Z,2.67
2023-05-01T06:52:49.390Z,3.00
2023-05-01T06:53:51.826Z,3.00
2023-05-01T06:54:55.172Z,2.33
2023-05-01T06:55:57.534Z,2.60
2023-05-01T06:57:01.476Z,2.77
2023-05-01T06:58:12.711Z,2.97
2023-05-01T06:59:26.429Z,2.77
2023-05-01T07:00:29.871Z,2.50
2023-05-01T07:01:35.294Z,2.80
2023-05-01T07:02:40.880Z,3.00
2023-05-01T07:03:44.973Z,2.90
2023-05-01T07:04:48.727Z,2.87
2023-05-01T07:05:51.083Z,2.57
2023-05-01T07:06:54.506Z,2.73
2023-05-01T07:08:01.176Z,3.10
2023-05-01T07:09:04.838Z,3.10
2023-05-01T07:10:08.279Z,3.43
2023-05-01T07:11:11.716Z,2.83
2023-05-01T07:12:15.170Z,3.07
2023-05-01T07:13:18.258Z,3.20
2023-05-01T07:14:21.737Z,2.80
2023-05-01T07:15:24.279Z,2.70
2023-05-01T07:16:27.979Z,3.10
2023-05-01T07:17:30.595Z,2.70
2023-05-01T07:18:34.895Z,2.60
2023-05-01T07:19:39.864Z,2.90
2023-05-01T07:20:43.200Z,2.80
2023-05-01T07:21:45.646Z,3.30
2023-05-01T07:22:49.369Z,3.20
2023-05-01T07:23:53.681Z,3.10
2023-05-01T07:24:56.348Z,2.73
2023-05-01T07:25:59.748Z,2.90
2023-05-01T07:27:02.197Z,3.03
2023-05-01T07:28:08.586Z,2.90
2023-05-01T07:29:11.860Z,3.20
2023-05-01T07:30:15.249Z,3.20
2023-05-01T07:31:17.765Z,3.60
2023-05-01T07:32:21.436Z,2.83
2023-05-01T07:33:25.955Z,2.97
2023-05-01T07:34:29.364Z,2.83
2023-05-01T07:35:33.157Z,3.00
2023-05-01T07:36:36.455Z,3.27
2023-05-01T07:37:38.936Z,3.20
2023-05-01T07:38:42.285Z,2.60
2023-05-01T07:39:45.563Z,3.10
2023-05-01T07:40:49.203Z,3.10
2023-05-01T07:41:51.648Z,3.27
2023-05-01T07:42:55.104Z,3.00
2023-05-01T07:43:59.019Z,3.30
2023-05-01T07:45:02.430Z,2.80
2023-05-01T07:46:05.658Z,3.53
2023-05-01T07:47:09.141Z,2.67
2023-05-01T07:48:11.697Z,3.00
2023-05-01T07:49:15.044Z,3.60
2023-05-01T07:50:18.533Z,3.10
2023-05-01T07:51:22.437Z,3.80
2023-05-01T07:52:26.326Z,3.20
2023-05-01T07:53:28.905Z,3.23
2023-05-01T07:54:32.905Z,3.40
2023-05-01T07:55:35.306Z,3.00
2023-05-01T07:56:38.748Z,3.20
2023-05-01T07:57:41.264Z,3.40
2023-05-01T07:58:44.917Z,4.13
2023-05-01T07:59:47.909Z,3.20
2023-05-01T08:00:51.492Z,3.20
2023-05-01T08:01:53.944Z,3.30
2023-05-01T08:02:57.392Z,3.03
2023-05-01T08:03:59.976Z,3.07
2023-05-01T08:05:04.260Z,3.10
2023-05-01T08:06:08.580Z,3.33
2023-05-01T08:07:12.324Z,3.53
2023-05-01T08:08:20.624Z,3.10
2023-05-01T08:09:24.416Z,3.30
2023-05-01T08:10:28.883Z,2.87
2023-05-01T08:11:33.608Z,3.83
2023-05-01T08:12:37.058Z,3.40
2023-05-01T08:13:40.801Z,3.37
2023-05-01T08:14:43.669Z,3.30
2023-05-01T08:15:48.817Z,3.40
2023-05-01T08:16:55.548Z,2.83
2023-05-01T08:17:58.057Z,3.53
2023-05-01T08:19:01.635Z,3.40
2023-05-01T08:20:04.593Z,4.00
2023-05-01T08:29:27.810Z,3.77
2023-05-01T08:30:31.753Z,3.70
2023-05-01T08:31:37.808Z,4.30
2023-05-01T08:32:40.416Z,3.57
2023-05-01T08:33:44.361Z,3.30
2023-05-01T08:34:46.738Z,2.87
2023-05-01T08:35:51.341Z,2.83
2023-05-01T08:37:54.418Z,3.27
2023-05-01T08:38:56.863Z,3.40
2023-05-01T08:40:00.212Z,2.97
2023-05-01T08:41:04.516Z,2.97
2023-05-01T08:42:07.268Z,3.43
2023-05-01T08:43:11.048Z,3.20
2023-05-01T08:44:14.874Z,3.43
2023-05-01T08:45:21.322Z,2.97
2023-05-01T08:46:30.546Z,3.03
2023-05-01T08:47:38.534Z,3.20
2023-05-01T08:48:44.517Z,3.00
2023-05-01T08:49:47.998Z,3.10
2023-05-01T08:50:52.231Z,3.40
2023-05-01T08:51:57.091Z,3.23
2023-05-01T08:53:03.484Z,3.33
2023-05-01T08:54:08.880Z,2.90
2023-05-01T08:55:14.510Z,3.47
2023-05-01T08:56:18.253Z,3.17
2023-05-01T08:57:23.078Z,2.47
2023-05-01T08:58:27.595Z,3.07
2023-05-01T08:59:32.742Z,3.30
2023-05-01T09:00:37.325Z,3.37
2023-05-01T09:01:42.375Z,3.10
2023-05-01T09:02:48.671Z,3.30
2023-05-01T09:03:53.905Z,2.73
2023-05-01T09:04:56.838Z,3.13
2023-05-01T09:06:01.365Z,2.87
2023-05-01T09:07:05.024Z,3.13
2023-05-01T09:08:09.787Z,2.90
2023-05-01T09:09:12.199Z,3.37
2023-05-01T09:10:18.933Z,3.33
2023-05-01T09:11:23.241Z,3.40
2023-05-01T09:12:27.743Z,2.70
2023-05-01T09:13:30.907Z,3.50
2023-05-01T09:14:34.967Z,3.30
2023-05-01T09:15:38.776Z,3.60
2023-05-01T09:16:41.732Z,3.10
2023-05-01T09:17:45.876Z,3.50
2023-05-01T09:18:49.622Z,3.03
2023-05-01T09:19:52.652Z,3.77
2023-05-01T09:20:56.351Z,3.90
2023-05-01T09:21:59.177Z,3.87
2023-05-01T09:23:02.673Z,3.90
2023-05-01T09:24:07.205Z,3.67
2023-05-01T09:25:11.801Z,3.63
2023-05-01T09:26:16.011Z,3.57
2023-05-01T09:27:19.708Z,4.23
2023-05-01T09:28:41.678Z,3.90
2023-05-01T09:29:47.453Z,4.20
2023-05-01T09:30:50.321Z,4.30
2023-05-01T09:31:53.845Z,3.30
2023-05-01T09:33:09.724Z,4.07
2023-05-01T09:34:13.161Z,3.43
2023-05-01T09:35:17.730Z,3.20
2023-05-01T09:36:21.122Z,3.20
2023-05-01T09:37:28.500Z,3.80
2023-05-01T09:38:32.960Z,3.30
2023-05-01T09:39:36.722Z,3.30
2023-05-01T09:40:40.263Z,3.60
2023-05-01T09:41:52.210Z,2.97
2023-05-01T09:42:56.878Z,3.37
2023-05-01T09:44:01.625Z,3.13
2023-05-01T09:45:05.479Z,3.60
2023-05-01T09:46:10.937Z,3.37
2023-05-01T09:47:14.093Z,3.57
2023-05-01T09:48:17.554Z,3.20
2023-05-01T09:49:19.978Z,3.20
2023-05-01T09:50:33.294Z,3.30
2023-05-01T09:51:37.003Z,3.37
2023-05-01T09:52:39.369Z,3.40
2023-05-01T09:53:42.685Z,3.57
2023-05-01T09:54:46.953Z,3.47
2023-05-01T09:56:02.274Z,3.77
2023-05-01T09:57:05.079Z,3.13
2023-05-01T09:58:08.438Z,3.50
2023-05-01T09:59:19.654Z,3.30
2023-05-01T10:00:23.470Z,3.67
2023-05-01T10:01:42.477Z,4.27
2023-05-01T10:02:47.781Z,3.47
2023-05-01T10:03:56.812Z,3.40
2023-05-01T10:04:59.946Z,3.30
2023-05-01T10:06:04.773Z,3.50
2023-05-01T10:07:14.668Z,3.50
2023-05-01T10:08:18.358Z,3.20
2023-05-01T10:09:29.591Z,3.63
2023-05-01T10:10:34.385Z,3.10
2023-05-01T10:11:49.756Z,3.80
2023-05-01T10:12:53.237Z,3.23
2023-05-01T10:14:10.454Z,3.73
2023-05-01T10:15:24.579Z,3.57
2023-05-01T10:16:30.714Z,3.73
2023-05-01T10:17:35.330Z,3.53
2023-05-01T10:18:38.177Z,3.33
2023-05-01T10:19:41.535Z,3.50
2023-05-01T10:20:44.884Z,3.50
2023-05-01T10:21:51.005Z,3.13
2023-05-01T10:23:00.786Z,3.27
2023-05-01T10:24:07.960Z,3.10
2023-05-01T10:25:13.134Z,3.40
2023-05-01T10:26:19.550Z,4.10
2023-05-01T10:27:25.607Z,3.73
2023-05-01T10:28:30.398Z,3.97
2023-05-01T10:29:36.683Z,3.63
2023-05-01T10:30:42.638Z,3.77
2023-05-01T10:31:46.051Z,4.43
2023-05-01T10:32:50.390Z,3.70
2023-05-01T10:33:53.285Z,3.00
2023-05-01T10:34:59.965Z,3.27
2023-05-01T10:36:04.078Z,3.53
2023-05-01T10:37:12.990Z,3.60
2023-05-01T10:38:25.098Z,3.70
2023-05-01T10:39:31.328Z,3.50
2023-05-01T10:40:48.746Z,3.40
2023-05-01T10:42:14.795Z,3.40
2023-05-01T10:43:19.601Z,3.60
2023-05-01T10:44:24.952Z,3.37
2023-05-01T10:45:31.046Z,3.47
2023-05-01T10:46:34.412Z,3.53
2023-05-01T10:47:48.939Z,3.73
2023-05-01T10:48:58.890Z,4.03
2023-05-01T10:50:05.421Z,3.50
2023-05-01T10:51:11.142Z,3.57
2023-05-01T10:52:15.917Z,3.80
2023-05-01T10:53:18.996Z,4.10
2023-05-01T10:54:29.639Z,3.57
2023-05-01T10:55:36.433Z,3.10
2023-05-01T10:56:44.778Z,3.57
2023-05-01T10:57:48.574Z,3.47
2023-05-01T10:58:59.601Z,4.50
2023-05-01T11:00:12.954Z,3.33
2023-05-01T11:01:36.702Z,4.40
2023-05-01T11:02:39.542Z,3.90
2023-05-01T11:03:43.394Z,3.90
2023-05-01T11:04:54.115Z,4.13
2023-05-01T11:06:08.389Z,3.43
2023-05-01T11:07:19.921Z,3.80
2023-05-01T11:08:31.887Z,3.30
2023-05-01T11:09:40.654Z,3.83
2023-05-01T11:10:43.723Z,3.73
2023-05-01T11:11:51.346Z,3.93
2023-05-01T11:12:57.022Z,4.27
2023-05-01T11:14:02.135Z,4.10
2023-05-01T11:15:08.427Z,3.80
2023-05-01T11:16:43.436Z,3.80
2023-05-01T11:17:46.511Z,3.93
2023-05-01T11:18:49.976Z,4.13
2023-05-01T11:19:52.744Z,3.83
2023-05-01T11:20:56.545Z,3.80
2023-05-01T11:21:59.184Z,4.00
2023-05-01T11:23:02.526Z,3.87
2023-05-01T11:24:05.567Z,3.90
2023-05-01T11:25:21.181Z,3.87
2023-05-01T11:26:23.731Z,3.60
2023-05-01T11:27:28.122Z,3.70
2023-05-01T11:28:33.253Z,4.20
2023-05-01T11:29:38.962Z,6.70
2023-05-01T11:30:43.275Z,4.37
2023-05-01T11:31:49.671Z,3.43
2023-05-01T11:32:52.722Z,4.30
2023-05-01T11:33:58.046Z,3.70
2023-05-01T11:35:00.978Z,4.00
2023-05-01T11:36:05.463Z,4.10
2023-05-01T11:37:08.149Z,4.43
2023-05-01T11:38:19.571Z,4.10
2023-05-01T11:39:23.635Z,4.47
2023-05-01T11:40:27.887Z,4.30
2023-05-01T11:41:31.854Z,3.93
2023-05-01T11:42:34.414Z,3.57
2023-05-01T11:43:51.773Z,4.53
2023-05-01T11:45:07.877Z,3.93
2023-05-01T11:46:11.321Z,3.70
2023-05-01T11:47:14.030Z,4.50
2023-05-01T11:48:17.728Z,4.40
2023-05-01T11:49:27.270Z,4.80
2023-05-01T11:50:35.713Z,5.10
2023-05-01T11:51:39.540Z,4.40
2023-05-01T11:52:43.604Z,4.43
2023-05-01T11:54:00.786Z,4.80
2023-05-01T11:55:04.200Z,4.50
2023-05-01T11:56:26.468Z,4.43
2023-05-01T11:57:30.614Z,4.57
2023-05-01T11:58:36.680Z,4.07
2023-05-01T11:59:40.702Z,5.13
2023-05-01T12:00:44.636Z,5.00
2023-05-01T12:01:48.381Z,4.73
2023-05-01T12:02:59.043Z,4.67
2023-05-01T12:04:03.162Z,4.60
2023-05-01T12:05:16.048Z,4.10
2023-05-01T12:06:19.552Z,4.20
2023-05-01T12:07:22.911Z,4.17
2023-05-01T12:08:28.504Z,5.13
2023-05-01T12:09:31.906Z,5.03
2023-05-01T12:10:35.995Z,3.90
2023-05-01T12:11:41.009Z,4.33
2023-05-01T12:12:43.713Z,4.60
2023-05-01T12:13:48.774Z,4.00
2023-05-01T12:14:53.259Z,4.00
2023-05-01T12:15:58.775Z,4.20
2023-05-01T12:17:03.672Z,4.10
2023-05-01T12:18:06.478Z,4.10
2023-05-01T12:19:12.213Z,4.30
2023-05-01T12:20:14.690Z,3.97
2023-05-01T12:21:19.395Z,4.23
2023-05-01T12:22:22.369Z,3.40
2023-05-01T12:23:33.513Z,4.20
2023-05-01T12:24:37.749Z,4.00
2023-05-01T12:25:53.616Z,4.03
2023-05-01T12:27:01.856Z,4.03
2023-05-01T12:28:10.971Z,4.00
2023-05-01T12:29:18.170Z,3.70
2023-05-01T12:30:27.256Z,4.07
2023-05-01T12:31:32.037Z,4.10
2023-05-01T12:32:34.789Z,3.73
2023-05-01T12:33:38.291Z,4.37
2023-05-01T12:34:41.940Z,3.70
2023-05-01T12:35:47.226Z,4.13
2023-05-01T12:36:55.182Z,3.83
2023-05-01T12:37:58.776Z,4.57
2023-05-01T12:39:03.769Z,3.10
2023-05-01T12:40:15.201Z,3.40
2023-05-01T12:41:17.622Z,3.80
2023-05-01T12:42:21.921Z,3.83
2023-05-01T12:43:32.614Z,3.93
2023-05-01T12:44:35.127Z,4.10
2023-05-01T12:45:42.794Z,3.87
2023-05-01T12:46:47.560Z,3.57
2023-05-01T12:47:51.258Z,3.73
2023-05-01T12:48:55.413Z,3.43
2023-05-01T12:50:03.674Z,3.63
2023-05-01T12:51:07.838Z,3.50
2023-05-01T12:52:10.887Z,3.80
2023-05-01T12:53:17.217Z,4.00
2023-05-01T12:54:21.320Z,3.50
2023-05-01T12:55:26.231Z,3.77
2023-05-01T12:56:29.127Z,4.00
2023-05-01T12:57:33.316Z,3.57
2023-05-01T12:58:37.139Z,3.63
2023-05-01T12:59:41.658Z,4.00
2023-05-01T13:00:54.199Z,3.80
2023-05-01T13:02:01.571Z,3.60
2023-05-01T13:03:06.225Z,4.10
2023-05-01T13:04:08.956Z,4.00
2023-05-01T13:05:13.382Z,3.60
2023-05-01T13:06:18.314Z,4.17
2023-05-01T13:07:21.244Z,4.23
2023-05-01T13:08:28.906Z,4.60
2023-05-01T13:09:32.527Z,4.13
2023-05-01T13:10:35.079Z,4.30
2023-05-01T13:11:39.852Z,4.30
2023-05-01T13:12:45.238Z,4.53
2023-05-01T13:13:50.774Z,4.83
2023-05-01T13:14:54.344Z,4.10
2023-05-01T13:16:13.259Z,4.17
2023-05-01T13:17:23.615Z,4.00
2023-05-01T13:18:27.572Z,4.17
2023-05-01T13:19:32.000Z,4.00
2023-05-01T13:20:39.047Z,3.87
2023-05-01T13:21:49.021Z,4.17
2023-05-01T13:22:51.686Z,3.90
2023-05-01T13:23:57.374Z,3.80
2023-05-01T13:25:00.341Z,4.60
2023-05-01T13:26:07.296Z,4.93
2023-05-01T13:27:10.145Z,4.30
2023-05-01T13:28:19.798Z,4.33
2023-05-01T13:29:24.657Z,4.03
2023-05-01T13:30:34.901Z,4.00
2023-05-01T13:31:43.968Z,4.90
2023-05-01T13:32:48.034Z,4.07
2023-05-01T13:33:53.622Z,4.33
2023-05-01T13:35:00.564Z,4.17
2023-05-01T13:36:11.246Z,4.40
2023-05-01T13:37:22.846Z,3.90
2023-05-01T13:38:25.436Z,4.27
2023-05-01T13:39:29.193Z,4.40
2023-05-01T13:40:34.919Z,3.57
2023-05-01T13:41:43.883Z,3.80
2023-05-01T13:42:48.367Z,3.77
2023-05-01T13:43:52.499Z,4.73
2023-05-01T13:44:57.626Z,3.63
2023-05-01T13:46:00.942Z,4.00
2023-05-01T13:47:06.115Z,3.77
2023-05-01T13:48:11.764Z,4.40
2023-05-01T13:49:14.948Z,3.47
2023-05-01T13:50:19.416Z,4.17
2023-05-01T13:51:23.866Z,4.10
2023-05-01T13:52:27.944Z,3.87
2023-05-01T13:53:30.777Z,3.97
2023-05-01T13:54:35.829Z,3.87
2023-05-01T13:55:41.022Z,3.93
2023-05-01T13:56:44.430Z,3.40
2023-05-01T13:57:46.998Z,3.83
2023-05-01T13:58:50.938Z,3.57
2023-05-01T13:59:54.341Z,3.30
2023-05-01T14:00:57.650Z,4.10
2023-05-01T14:02:01.139Z,3.43
2023-05-01T14:03:05.171Z,3.50
2023-05-01T14:04:11.399Z,3.90
2023-05-01T14:05:15.254Z,3.97
2023-05-01T14:06:19.912Z,3.73
2023-05-01T14:07:25.743Z,3.50
2023-05-01T14:08:31.203Z,3.33
2023-05-01T14:09:37.186Z,3.63
2023-05-01T14:10:40.684Z,3.30
2023-05-01T14:11:46.731Z,3.90
2023-05-01T14:12:52.062Z,3.77
2023-05-01T14:14:00.240Z,3.70
2023-05-01T14:15:03.465Z,3.90
2023-05-01T14:16:11.042Z,3.50
2023-05-01T14:17:14.144Z,3.70
2023-05-01T14:18:19.972Z,4.10
2023-05-01T14:19:24.597Z,3.43
2023-05-01T14:20:27.222Z,3.87
2023-05-01T14:21:32.045Z,3.33
2023-05-01T14:22:44.118Z,3.70
2023-05-01T14:23:47.555Z,4.10
2023-05-01T14:24:51.181Z,3.90
2023-05-01T14:25:54.557Z,3.70
2023-05-01T14:26:57.996Z,3.83
2023-05-01T14:28:02.993Z,3.60
2023-05-01T14:29:05.341Z,3.57
2023-05-01T14:30:20.522Z,3.50
2023-05-01T14:31:28.945Z,3.60
2023-05-01T14:32:38.368Z,3.70
2023-05-01T14:33:44.950Z,3.40
2023-05-01T14:34:48.342Z,3.90
2023-05-01T14:35:54.176Z,3.50
2023-05-01T14:36:56.760Z,4.00
2023-05-01T14:38:08.387Z,3.30
2023-05-01T14:39:11.771Z,3.33
2023-05-01T14:40:15.516Z,3.40
2023-05-01T14:41:20.177Z,3.67
2023-05-01T14:42:23.790Z,3.20
2023-05-01T14:43:29.082Z,3.20
2023-05-01T14:44:32.578Z,2.90
2023-05-01T14:45:37.996Z,3.47
2023-05-01T14:46:47.308Z,3.40
2023-05-01T14:47:52.637Z,3.03
2023-05-01T14:48:58.040Z,2.93
2023-05-01T14:50:01.590Z,3.00
2023-05-01T14:51:06.645Z,3.23
2023-05-01T14:52:12.342Z,2.90
2023-05-01T14:53:15.294Z,3.73
2023-05-01T14:54:19.794Z,3.20
2023-05-01T14:55:28.298Z,3.30
2023-05-01T14:56:30.832Z,3.37
2023-05-01T14:57:34.130Z,3.30
2023-05-01T14:58:37.399Z,3.90
2023-05-01T14:59:41.443Z,3.70
2023-05-01T15:00:44.014Z,3.73
2023-05-01T15:01:47.739Z,4.07
2023-05-01T15:02:50.521Z,3.60
2023-05-01T15:03:54.526Z,3.57